createdAt,value
2023-03-03T00:00:20.220Z,99.90
2023-03-03T00:02:48.618Z,99.90
2023-03-03T00:05:16.145Z,99.90
2023-03-03T00:07:43.658Z,99.90
2023-03-03T00:10:11.349Z,99.90
2023-03-03T00:12:38.875Z,99.90
2023-03-03T00:15:15.528Z,99.90
2023-03-03T00:17:43.101Z,99.90
2023-03-03T00:20:25.758Z,99.90
2023-03-03T00:22:53.303Z,99.90
2023-03-03T00:25:30.281Z,99.90
2023-03-03T00:28:01.545Z,99.90
2023-03-03T00:30:29.831Z,99.90
2023-03-03T00:32:57.354Z,99.90
2023-03-03T00:35:28.518Z,99.90
2023-03-03T00:37:56.004Z,99.90
2023-03-03T00:40:32.473Z,99.90
2023-03-03T00:43:00.010Z,99.90
2023-03-03T00:45:33.091Z,99.90
2023-03-03T00:48:00.630Z,99.90
2023-03-03T00:50:28.162Z,99.90
2023-03-03T00:53:01.275Z,99.90
2023-03-03T00:55:29.605Z,99.90
2023-03-03T00:57:57.130Z,99.90
2023-03-03T01:00:24.657Z,99.90
2023-03-03T01:02:52.586Z,99.90
2023-03-03T01:05:20.867Z,99.90
2023-03-03T01:07:48.403Z,99.90
2023-03-03T01:10:16.009Z,99.90
2023-03-03T01:12:43.544Z,99.90
2023-03-03T01:15:11.068Z,99.90
2023-03-03T01:17:39.407Z,99.90
2023-03-03T01:20:07.071Z,99.90
2023-03-03T01:22:34.617Z,99.90
2023-03-03T01:25:02.210Z,99.90
2023-03-03T01:27:29.754Z,99.90
2023-03-03T01:29:57.261Z,99.90
2023-03-03T01:32:25.352Z,99.90
2023-03-03T01:34:52.841Z,99.90
2023-03-03T01:37:20.377Z,99.90
2023-03-03T01:39:55.143Z,99.90
2023-03-03T01:42:22.671Z,99.90
2023-03-03T01:44:50.237Z,99.90
2023-03-03T01:47:24.133Z,99.90
2023-03-03T01:49:57.130Z,99.90
2023-03-03T01:52:27.559Z,99.90
2023-03-03T01:54:55.340Z,99.90
2023-03-03T01:57:22.879Z,99.90
2023-03-03T01:59:50.524Z,99.90
2023-03-03T02:02:18.041Z,99.90
2023-03-03T02:04:46.311Z,99.90
2023-03-03T02:07:14.618Z,99.90
2023-03-03T02:10:00.251Z,99.90
2023-03-03T02:12:27.772Z,99.90
2023-03-03T02:14:55.300Z,99.90
2023-03-03T02:17:22.880Z,99.90
2023-03-03T02:19:59.390Z,99.90
2023-03-03T02:22:44.747Z,99.90
2023-03-03T02:25:12.303Z,99.90
2023-03-03T02:27:39.826Z,99.90
2023-03-03T02:30:14.988Z,99.90
2023-03-03T02:32:42.544Z,99.90
2023-03-03T02:35:28.794Z,99.90
2023-03-03T02:37:56.247Z,99.90
2023-03-03T02:40:23.794Z,99.90
2023-03-03T02:42:51.346Z,99.90
2023-03-03T02:45:18.883Z,99.90
2023-03-03T02:47:52.378Z,99.90
2023-03-03T02:50:19.932Z,99.90
2023-03-03T02:52:47.465Z,99.90
2023-03-03T02:55:15.019Z,99.90
2023-03-03T02:57:42.938Z,99.90
2023-03-03T03:00:10.713Z,99.90
2023-03-03T03:02:38.244Z,99.90
2023-03-03T03:05:05.896Z,99.90
2023-03-03T03:07:33.440Z,99.90
2023-03-03T03:10:00.993Z,99.90
2023-03-03T03:12:28.567Z,99.90
2023-03-03T03:14:56.088Z,99.90
2023-03-03T03:17:23.629Z,99.90
2023-03-03T03:19:51.269Z,99.90
2023-03-03T03:22:18.813Z,99.90
2023-03-03T03:24:46.329Z,99.90
2023-03-03T03:27:14.696Z,99.90
2023-03-03T03:29:42.236Z,99.90
2023-03-03T03:32:09.791Z,99.90
2023-03-03T03:34:38.974Z,99.90
2023-03-03T03:37:06.495Z,99.90
2023-03-03T03:39:34.028Z,99.90
2023-03-03T03:42:01.595Z,99.90
2023-03-03T03:44:29.906Z,99.90
2023-03-03T03:46:57.440Z,99.90
2023-03-03T03:49:25.792Z,99.90
2023-03-03T03:51:53.334Z,99.90
2023-03-03T03:54:20.883Z,99.90
2023-03-03T03:56:49.246Z,99.90
2023-03-03T03:59:16.804Z,99.90
2023-03-03T04:01:45.105Z,99.90
2023-03-03T04:04:12.660Z,99.90
2023-03-03T04:06:40.201Z,99.90
2023-03-03T04:09:09.225Z,99.90
2023-03-03T04:11:36.818Z,99.90
2023-03-03T04:14:05.141Z,99.90
2023-03-03T04:16:32.681Z,99.90
2023-03-03T04:19:01.012Z,99.90
2023-03-03T04:21:28.547Z,99.90
2023-03-03T04:23:56.109Z,99.90
2023-03-03T04:26:23.699Z,99.90
2023-03-03T04:28:51.231Z,99.90
2023-03-03T04:31:18.799Z,99.90
2023-03-03T04:33:46.644Z,99.90
2023-03-03T04:36:14.185Z,99.90
2023-03-03T04:38:41.739Z,99.90
2023-03-03T04:41:09.293Z,99.90
2023-03-03T04:43:36.822Z,99.90
2023-03-03T04:46:04.371Z,99.90
2023-03-03T04:48:31.943Z,99.90
2023-03-03T04:50:59.477Z,99.90
2023-03-03T04:53:27.029Z,99.90
2023-03-03T04:55:54.603Z,99.90
2023-03-03T04:58:22.157Z,99.90
2023-03-03T05:00:55.701Z,99.90
2023-03-03T05:03:24.063Z,99.90
2023-03-03T05:05:52.374Z,99.90
2023-03-03T05:08:19.902Z,99.90
2023-03-03T05:10:48.254Z,99.90
2023-03-03T05:13:15.777Z,99.90
2023-03-03T05:15:43.465Z,99.90
2023-03-03T05:18:10.913Z,99.90
2023-03-03T05:20:38.439Z,99.90
2023-03-03T05:23:05.982Z,99.90
2023-03-03T05:25:34.354Z,99.90
2023-03-03T05:28:01.900Z,99.90
2023-03-03T05:30:30.229Z,99.90
2023-03-03T05:32:57.795Z,99.90
2023-03-03T05:35:25.360Z,99.90
2023-03-03T05:37:52.885Z,99.90
2023-03-03T05:40:20.481Z,99.90
2023-03-03T05:42:48.044Z,99.90
2023-03-03T05:45:15.552Z,99.90
2023-03-03T05:47:43.171Z,99.90
2023-03-03T05:50:10.839Z,99.90
2023-03-03T05:52:38.343Z,99.90
2023-03-03T05:55:16.312Z,99.90
2023-03-03T05:57:43.849Z,99.90
2023-03-03T06:00:11.440Z,99.90
2023-03-03T06:02:39.988Z,99.90
2023-03-03T06:05:07.600Z,99.90
2023-03-03T06:07:35.884Z,99.90
2023-03-03T06:10:03.507Z,99.90
2023-03-03T06:12:31.055Z,99.90
2023-03-03T06:14:58.581Z,99.90
2023-03-03T06:17:26.176Z,99.90
2023-03-03T06:19:53.739Z,99.90
2023-03-03T06:22:21.287Z,99.90
2023-03-03T06:24:48.855Z,99.90
2023-03-03T06:27:16.418Z,99.90
2023-03-03T06:29:43.946Z,99.90
2023-03-03T06:32:11.634Z,99.90
2023-03-03T06:34:39.857Z,99.90
2023-03-03T06:37:07.406Z,99.90
2023-03-03T06:39:35.007Z,99.90
2023-03-03T06:42:02.541Z,99.90
2023-03-03T06:44:30.096Z,99.90
2023-03-03T06:46:57.691Z,99.90
2023-03-03T06:49:25.228Z,99.90
2023-03-03T06:51:52.779Z,99.90
2023-03-03T06:54:20.411Z,99.90
2023-03-03T06:56:47.940Z,99.90
2023-03-03T06:59:15.480Z,99.90
2023-03-03T07:01:43.075Z,99.90
2023-03-03T07:04:31.459Z,99.90
2023-03-03T07:06:58.991Z,99.90
2023-03-03T07:09:30.319Z,99.90
2023-03-03T07:11:57.856Z,99.90
2023-03-03T07:14:25.451Z,99.90
2023-03-03T07:16:53.069Z,99.90
2023-03-03T07:19:20.518Z,99.90
2023-03-03T07:21:48.125Z,99.90
2023-03-03T07:24:27.320Z,99.90
2023-03-03T07:27:00.904Z,99.90
2023-03-03T07:29:28.458Z,99.90
2023-03-03T07:31:56.094Z,99.90
2023-03-03T07:34:38.572Z,99.90
2023-03-03T07:37:17.760Z,99.90
2023-03-03T07:39:46.117Z,99.90
2023-03-03T07:42:28.674Z,99.90
2023-03-03T07:44:56.228Z,99.90
2023-03-03T07:47:26.472Z,99.90
2023-03-03T07:49:56.448Z,99.90
2023-03-03T07:52:39.766Z,99.90
2023-03-03T07:55:25.876Z,99.90
2023-03-03T07:57:53.460Z,99.90
2023-03-03T08:00:21.036Z,99.90
2023-03-03T08:03:06.522Z,99.90
2023-03-03T08:05:49.038Z,99.90
2023-03-03T08:08:22.534Z,99.90
2023-03-03T08:10:50.170Z,99.90
2023-03-03T08:13:20.322Z,99.90
2023-03-03T08:15:47.927Z,99.90
2023-03-03T08:18:31.582Z,99.90
2023-03-03T08:20:59.190Z,99.90
2023-03-03T08:23:26.826Z,99.90
2023-03-03T08:25:54.351Z,99.90
2023-03-03T08:28:21.944Z,99.90
2023-03-03T08:30:49.470Z,99.90
2023-03-03T08:33:16.991Z,99.90
2023-03-03T08:35:44.656Z,99.90
2023-03-03T08:38:12.121Z,99.90
2023-03-03T08:40:39.646Z,99.90
2023-03-03T08:43:08.052Z,99.90
2023-03-03T08:45:35.579Z,99.90
2023-03-03T08:48:06.227Z,99.90
2023-03-03T08:50:32.787Z,99.90
2023-03-03T08:53:00.333Z,99.90
2023-03-03T08:55:28.615Z,99.90
2023-03-03T08:57:56.198Z,99.90
2023-03-03T09:00:23.762Z,99.90
2023-03-03T09:02:51.290Z,99.90
2023-03-03T09:05:18.865Z,99.90
2023-03-03T09:07:47.897Z,99.90
2023-03-03T09:10:14.710Z,99.90
2023-03-03T09:12:43.058Z,99.90
2023-03-03T09:15:29.173Z,99.90
2023-03-03T09:18:14.862Z,99.90
2023-03-03T09:20:44.974Z,99.90
2023-03-03T09:23:24.214Z,99.90
2023-03-03T09:25:51.729Z,99.90
2023-03-03T09:28:25.731Z,99.90
2023-03-03T09:30:53.290Z,99.90
2023-03-03T09:33:27.786Z,99.90
2023-03-03T09:35:58.332Z,99.90
2023-03-03T09:38:28.770Z,99.90
2023-03-03T09:41:02.027Z,99.90
2023-03-03T09:43:29.616Z,99.90
2023-03-03T09:46:17.952Z,99.90
2023-03-03T09:48:45.488Z,99.90
2023-03-03T09:51:37.055Z,99.90
2023-03-03T09:54:23.233Z,99.90
2023-03-03T09:56:56.911Z,99.90
2023-03-03T09:59:27.461Z,99.90
2023-03-03T10:01:57.456Z,99.90
2023-03-03T10:04:33.826Z,99.90
2023-03-03T10:07:09.968Z,99.90
2023-03-03T10:10:02.193Z,99.90
2023-03-03T10:12:29.756Z,99.90
2023-03-03T10:15:15.413Z,99.90
2023-03-03T10:17:43.215Z,99.90
2023-03-03T10:20:13.386Z,99.90
2023-03-03T10:22:56.920Z,99.90
2023-03-03T10:25:39.259Z,99.90
2023-03-03T10:28:43.727Z,99.90
2023-03-03T10:31:32.146Z,99.90
2023-03-03T10:34:36.386Z,99.90
2023-03-03T10:37:12.843Z,99.90
2023-03-03T10:39:58.428Z,99.90
2023-03-03T10:42:41.581Z,99.90
2023-03-03T10:45:36.263Z,99.90
2023-03-03T10:48:39.598Z,99.80
2023-03-03T10:51:07.941Z,99.80
2023-03-03T10:53:50.638Z,99.90
2023-03-03T10:56:51.818Z,99.90
2023-03-03T10:59:18.231Z,99.80
2023-03-03T11:02:03.824Z,99.60
2023-03-03T11:04:49.852Z,99.30
2023-03-03T11:07:29.828Z,99.00
2023-03-03T11:10:18.846Z,99.00
2023-03-03T11:13:02.853Z,98.80
2023-03-03T11:15:41.449Z,98.80
2023-03-03T11:18:25.770Z,98.50
2023-03-03T11:21:22.156Z,98.10
2023-03-03T11:24:04.582Z,98.10
2023-03-03T11:26:43.895Z,97.80
2023-03-03T11:29:20.160Z,97.10
2023-03-03T11:31:56.423Z,96.80
2023-03-03T11:34:58.480Z,96.60
2023-03-03T11:37:37.652Z,96.50
2023-03-03T11:40:07.983Z,96.40
2023-03-03T11:42:54.186Z,96.40
2023-03-03T11:45:31.537Z,95.80
2023-03-03T11:48:01.828Z,95.80
2023-03-03T11:50:32.203Z,95.80
2023-03-03T11:53:11.681Z,95.80
2023-03-03T11:55:39.212Z,95.40
2023-03-03T11:58:09.412Z,95.10
2023-03-03T12:00:54.926Z,94.70
2023-03-03T12:03:32.339Z,94.20
2023-03-03T12:06:17.844Z,94.20
2023-03-03T12:09:09.739Z,94.10
2023-03-03T12:11:40.356Z,94.20
2023-03-03T12:14:45.911Z,93.60
2023-03-03T12:17:16.411Z,93.60
2023-03-03T12:19:46.951Z,93.20
2023-03-03T12:22:20.393Z,93.10
2023-03-03T12:24:50.583Z,92.70
2023-03-03T12:27:23.489Z,92.00
2023-03-03T12:30:06.002Z,91.70
2023-03-03T12:32:51.291Z,91.30
2023-03-03T12:35:21.985Z,91.10
2023-03-03T12:37:58.114Z,90.80
2023-03-03T12:40:25.654Z,90.50
2023-03-03T12:43:01.888Z,90.00
2023-03-03T12:45:38.278Z,89.50
2023-03-03T12:48:17.743Z,87.90
2023-03-03T12:50:53.981Z,87.90
2023-03-03T12:53:51.664Z,87.90
2023-03-03T12:56:28.045Z,87.30
2023-03-03T12:59:07.598Z,86.20
2023-03-03T13:01:38.372Z,84.30
2023-03-03T13:04:27.862Z,84.30
2023-03-03T13:07:13.312Z,83.20
2023-03-03T13:10:01.874Z,83.10
2023-03-03T13:12:50.623Z,83.60
2023-03-03T13:15:18.410Z,83.30
2023-03-03T13:17:54.396Z,82.00
2023-03-03T13:20:43.127Z,81.60
2023-03-03T13:23:32.370Z,81.20
2023-03-03T13:26:05.570Z,80.30
2023-03-03T13:28:38.660Z,79.50
2023-03-03T13:31:27.463Z,79.00
2023-03-03T13:34:00.648Z,78.40
2023-03-03T13:36:43.025Z,78.50
2023-03-03T13:39:13.273Z,78.60
2023-03-03T13:41:46.637Z,77.60
2023-03-03T13:44:35.719Z,76.90
2023-03-03T13:47:40.442Z,76.60
2023-03-03T13:50:16.681Z,76.90
2023-03-03T13:53:05.488Z,76.60
2023-03-03T13:55:36.789Z,74.80
2023-03-03T13:58:16.239Z,74.40
2023-03-03T14:00:44.137Z,74.80
2023-03-03T14:03:14.585Z,74.10
2023-03-03T14:05:45.700Z,72.90
2023-03-03T14:08:13.552Z,72.90
2023-03-03T14:10:41.081Z,73.00
2023-03-03T14:13:17.334Z,72.50
2023-03-03T14:16:03.765Z,71.50
2023-03-03T14:18:37.238Z,71.20
2023-03-03T14:21:04.791Z,71.70
2023-03-03T14:23:32.680Z,71.30
2023-03-03T14:26:00.247Z,71.20
2023-03-03T14:28:27.790Z,71.00
2023-03-03T14:30:55.487Z,70.60
2023-03-03T14:33:23.731Z,70.20
2023-03-03T14:35:51.310Z,69.90
2023-03-03T14:38:18.895Z,69.70
2023-03-03T14:40:46.439Z,69.50
2023-03-03T14:43:22.954Z,69.30
2023-03-03T14:45:50.491Z,69.10
2023-03-03T14:48:18.036Z,68.80
2023-03-03T14:50:48.385Z,67.80
2023-03-03T14:53:19.666Z,67.10
2023-03-03T14:55:47.948Z,67.00
2023-03-03T14:58:24.789Z,66.90
2023-03-03T15:00:53.079Z,67.00
2023-03-03T15:03:23.585Z,66.30
2023-03-03T15:05:51.182Z,66.60
2023-03-03T15:08:18.704Z,66.60
2023-03-03T15:10:47.069Z,64.30
2023-03-03T15:13:20.428Z,64.30
2023-03-03T15:16:01.038Z,64.30
2023-03-03T15:18:28.511Z,64.30
2023-03-03T15:21:05.464Z,64.60
2023-03-03T15:23:54.705Z,64.10
2023-03-03T15:26:31.492Z,64.10
2023-03-03T15:29:04.986Z,64.00
2023-03-03T15:31:41.352Z,63.40
2023-03-03T15:34:27.354Z,62.90
2023-03-03T15:37:00.513Z,62.50
2023-03-03T15:39:28.046Z,62.70
2023-03-03T15:42:04.340Z,62.60
2023-03-03T15:44:43.462Z,62.10
2023-03-03T15:47:29.319Z,61.60
2023-03-03T15:50:06.163Z,61.00
2023-03-03T15:52:54.863Z,61.00
2023-03-03T15:55:25.192Z,60.70
2023-03-03T15:58:11.481Z,60.30
2023-03-03T16:00:41.763Z,60.20
2023-03-03T16:03:12.322Z,59.40
2023-03-03T16:05:48.457Z,59.40
2023-03-03T16:08:25.036Z,59.40
2023-03-03T16:11:17.325Z,59.60
2023-03-03T16:13:59.897Z,59.40
2023-03-03T16:16:40.600Z,59.10
2023-03-03T16:19:19.514Z,59.10
2023-03-03T16:22:05.349Z,58.70
2023-03-03T16:24:35.555Z,57.80
2023-03-03T16:29:45.600Z,57.30
2023-03-03T16:32:13.185Z,56.90
2023-03-03T16:34:43.386Z,56.80
2023-03-03T16:37:19.658Z,56.70
2023-03-03T16:40:08.312Z,56.80
2023-03-03T16:42:35.905Z,57.00
2023-03-03T16:45:23.960Z,57.40
2023-03-03T16:47:58.243Z,58.10
2023-03-03T16:50:40.651Z,58.10
2023-03-03T16:53:39.337Z,58.10
2023-03-03T16:56:11.395Z,58.80
2023-03-03T16:58:45.345Z,58.70
2023-03-03T17:01:22.413Z,59.20
2023-03-03T17:03:55.797Z,59.20
2023-03-03T17:06:29.269Z,59.70
2023-03-03T17:09:32.677Z,60.00
2023-03-03T17:12:19.082Z,60.40
2023-03-03T17:15:04.783Z,60.90
2023-03-03T17:17:44.584Z,61.70
2023-03-03T17:20:15.103Z,62.60
2023-03-03T17:22:54.351Z,62.80
2023-03-03T17:25:22.233Z,62.80
2023-03-03T17:27:55.947Z,63.80
2023-03-03T17:30:44.867Z,64.80
2023-03-03T17:33:12.464Z,65.80
2023-03-03T17:36:01.961Z,66.70
2023-03-03T17:38:56.771Z,67.20
2023-03-03T17:41:34.019Z,68.40
2023-03-03T17:44:10.146Z,68.40
2023-03-03T17:46:43.229Z,68.70
2023-03-03T17:49:10.773Z,69.20
2023-03-03T17:51:44.488Z,70.00
2023-03-03T17:54:20.928Z,70.00
2023-03-03T17:56:57.468Z,70.30
2023-03-03T17:59:40.206Z,70.70
2023-03-03T18:02:44.679Z,70.90
2023-03-03T18:05:31.124Z,71.20
2023-03-03T18:08:04.673Z,71.00
2023-03-03T18:10:47.269Z,70.90
2023-03-03T18:13:30.875Z,70.10
2023-03-03T18:16:22.996Z,70.00
2023-03-03T18:18:51.252Z,69.20
2023-03-03T18:21:24.306Z,69.10
2023-03-03T18:23:52.948Z,69.70
2023-03-03T18:26:39.064Z,69.70
2023-03-03T18:29:18.350Z,70.10
2023-03-03T18:31:57.739Z,70.40
2023-03-03T18:34:40.057Z,70.50
2023-03-03T18:37:10.563Z,70.70
2023-03-03T18:39:51.507Z,71.00
2023-03-03T18:42:18.111Z,71.20
2023-03-03T18:44:45.654Z,70.60
2023-03-03T18:47:13.758Z,70.70
2023-03-03T18:50:02.135Z,70.90
2023-03-03T18:52:29.728Z,71.60
2023-03-03T18:55:11.874Z,71.00
2023-03-03T18:57:39.457Z,71.90
2023-03-03T19:02:28.310Z,75.30
2023-03-03T19:04:56.043Z,77.30
2023-03-03T19:07:28.551Z,78.90
2023-03-03T19:09:59.087Z,80.60
2023-03-03T19:12:44.761Z,82.10
2023-03-03T19:15:30.401Z,83.20
2023-03-03T19:18:20.227Z,85.30
2023-03-03T19:20:53.533Z,85.20
2023-03-03T19:23:23.979Z,85.80
2023-03-03T19:26:25.219Z,86.40
2023-03-03T19:29:01.203Z,87.50
2023-03-03T19:31:38.655Z,88.70
2023-03-03T19:34:33.045Z,88.60
2023-03-03T19:37:09.127Z,88.40
2023-03-03T19:39:51.342Z,88.90
2023-03-03T19:42:34.366Z,90.30
2023-03-03T19:45:21.110Z,90.70
2023-03-03T19:47:48.688Z,90.70
2023-03-03T19:50:34.789Z,91.20
2023-03-03T19:53:08.036Z,91.60
2023-03-03T19:55:35.605Z,92.10
2023-03-03T19:58:21.479Z,92.60
2023-03-03T20:00:54.734Z,93.10
2023-03-03T20:03:27.786Z,93.70
2023-03-03T20:06:16.802Z,94.50
2023-03-03T20:08:44.840Z,95.10
2023-03-03T20:11:36.659Z,95.10
2023-03-03T20:14:19.084Z,95.70
2023-03-03T20:16:46.639Z,96.40
2023-03-03T20:19:32.706Z,96.40
2023-03-03T20:22:11.997Z,96.90
2023-03-03T20:24:54.231Z,97.70
2023-03-03T20:27:36.492Z,97.90
2023-03-03T20:30:23.174Z,98.10
2023-03-03T20:33:27.916Z,98.50
2023-03-03T20:35:58.770Z,98.70
2023-03-03T20:38:44.645Z,98.30
2023-03-03T20:41:31.032Z,98.40
2023-03-03T20:44:16.732Z,98.60
2023-03-03T20:47:05.558Z,98.80
2023-03-03T20:49:38.663Z,99.30
2023-03-03T20:52:09.013Z,99.90
2023-03-03T20:54:48.784Z,99.90
2023-03-03T20:57:22.969Z,99.90
2023-03-03T20:59:56.764Z,99.90
2023-03-03T21:02:57.781Z,99.90
2023-03-03T21:05:26.427Z,99.90
2023-03-03T21:07:53.938Z,99.90
2023-03-03T21:10:24.179Z,99.70
2023-03-03T21:12:51.742Z,99.70
2023-03-03T21:15:22.235Z,99.80
2023-03-03T21:17:49.795Z,99.90
2023-03-03T21:20:26.326Z,99.90
2023-03-03T21:22:54.616Z,99.90
2023-03-03T21:25:43.062Z,99.90
2023-03-03T21:28:25.604Z,99.90
2023-03-03T21:30:59.692Z,99.90
2023-03-03T21:33:39.057Z,99.90
2023-03-03T21:36:09.902Z,99.90
2023-03-03T21:38:37.432Z,99.90
2023-03-03T21:41:04.975Z,99.90
2023-03-03T21:43:35.677Z,99.90
2023-03-03T21:46:03.260Z,99.90
2023-03-03T21:48:30.771Z,99.90
2023-03-03T21:50:58.598Z,99.90
2023-03-03T21:53:26.139Z,99.90
2023-03-03T21:55:53.675Z,99.90
2023-03-03T21:58:21.262Z,99.90
2023-03-03T22:00:48.795Z,99.90
2023-03-03T22:03:16.317Z,99.90
2023-03-03T22:05:44.682Z,99.90
2023-03-03T22:08:12.217Z,99.90
2023-03-03T22:10:40.517Z,99.90
2023-03-03T22:13:08.376Z,99.90
2023-03-03T22:15:35.969Z,99.90
2023-03-03T22:18:04.232Z,99.90
2023-03-03T22:20:31.831Z,99.90
2023-03-03T22:22:59.365Z,99.90
2023-03-03T22:25:26.959Z,99.90
2023-03-03T22:27:55.307Z,99.90
2023-03-03T22:30:22.865Z,99.90
2023-03-03T22:32:50.392Z,99.90
2023-03-03T22:35:18.131Z,99.90
2023-03-03T22:37:45.595Z,99.90
2023-03-03T22:40:13.147Z,99.90
2023-03-03T22:42:41.492Z,99.90
2023-03-03T22:45:09.155Z,99.90
2023-03-03T22:47:36.696Z,99.90
2023-03-03T22:50:04.506Z,99.90
2023-03-03T22:52:32.810Z,99.90
2023-03-03T22:55:00.356Z,99.90
2023-03-03T22:57:28.686Z,99.90
2023-03-03T22:59:56.233Z,99.90
2023-03-03T23:02:23.759Z,99.90
2023-03-03T23:04:51.405Z,99.90
2023-03-03T23:07:18.890Z,99.90
2023-03-03T23:09:46.417Z,99.90
2023-03-03T23:12:13.998Z,99.90
2023-03-03T23:14:41.515Z,99.90
2023-03-03T23:17:09.835Z,99.90
2023-03-03T23:19:37.398Z,99.90
2023-03-03T23:22:04.944Z,99.90
2023-03-03T23:24:32.516Z,99.90
2023-03-03T23:27:00.103Z,99.90
2023-03-03T23:29:27.618Z,99.90
2023-03-03T23:31:55.148Z,99.90
2023-03-03T23:34:22.716Z,99.90
2023-03-03T23:36:51.010Z,99.90
2023-03-03T23:39:18.534Z,99.90
2023-03-03T23:41:46.158Z,99.90
2023-03-03T23:44:13.707Z,99.90
2023-03-03T23:46:41.302Z,99.90
2023-03-03T23:49:08.812Z,99.90
2023-03-03T23:51:36.332Z,99.90
2023-03-03T23:54:03.872Z,99.90
2023-03-03T23:56:31.458Z,99.90
2023-03-03T23:58:59.771Z,99.90
